createdAt,value
2023-05-10T00:01:25.341Z,100052.91
2023-05-10T00:03:53.363Z,100059.34
2023-05-10T00:06:21.562Z,100047.84
2023-05-10T00:08:49.460Z,100055.78
2023-05-10T00:11:17.357Z,100054.47
2023-05-10T00:13:46.249Z,100053.63
2023-05-10T00:16:14.835Z,100047.81
2023-05-10T00:18:42.842Z,100047.91
2023-05-10T00:21:10.929Z,100051.03
2023-05-10T00:23:39.134Z,100052.47
2023-05-10T00:26:06.995Z,100048.00
2023-05-10T00:28:35.038Z,100046.50
2023-05-10T00:31:04.634Z,100052.19
2023-05-10T00:33:32.457Z,100042.19
2023-05-10T00:36:00.699Z,100045.19
2023-05-10T00:38:28.747Z,100048.34
2023-05-10T00:40:57.260Z,100043.16
2023-05-10T00:43:31.077Z,100047.13
2023-05-10T00:45:59.077Z,100051.00
2023-05-10T00:48:27.048Z,100050.13
2023-05-10T00:50:55.384Z,100049.44
2023-05-10T00:53:23.363Z,100050.75
2023-05-10T00:55:52.124Z,100051.66
2023-05-10T00:58:20.760Z,100050.94
2023-05-10T01:00:50.255Z,100050.06
2023-05-10T01:03:18.402Z,100046.41
2023-05-10T01:05:46.774Z,100045.28
2023-05-10T01:08:15.270Z,100043.88
2023-05-10T01:10:45.173Z,100042.75
2023-05-10T01:13:14.618Z,100043.75
2023-05-10T01:15:42.738Z,100044.22
2023-05-10T01:18:11.086Z,100040.91
2023-05-10T01:20:50.121Z,100040.25
2023-05-10T01:23:29.745Z,100031.69
2023-05-10T01:26:16.402Z,100032.34
2023-05-10T01:29:08.938Z,100034.84
2023-05-10T01:31:59.636Z,100035.84
2023-05-10T01:34:59.792Z,100032.47
2023-05-10T01:37:43.651Z,100037.66
2023-05-10T01:40:30.525Z,100033.31
2023-05-10T01:43:05.396Z,100028.91
2023-05-10T01:45:38.876Z,100025.41
2023-05-10T01:48:15.271Z,100022.31
2023-05-10T01:50:47.640Z,100024.59
2023-05-10T01:53:21.314Z,100024.69
2023-05-10T01:55:53.754Z,100014.72
2023-05-10T01:58:32.864Z,100013.09
2023-05-10T02:01:04.768Z,100013.31
2023-05-10T02:03:33.525Z,100018.56
2023-05-10T02:06:02.641Z,100009.25
2023-05-10T02:08:31.281Z,100014.63
2023-05-10T02:11:00.556Z,100008.78
2023-05-10T02:13:30.735Z,100010.75
2023-05-10T02:16:00.360Z,100007.19
2023-05-10T02:18:29.559Z,100000.69
2023-05-10T02:20:59.043Z,99998.97
2023-05-10T02:23:28.443Z,100001.44
2023-05-10T02:26:01.338Z,100001.59
2023-05-10T02:28:29.494Z,100001.91
2023-05-10T02:30:58.165Z,99997.66
2023-05-10T02:33:28.164Z,99995.13
2023-05-10T02:35:57.339Z,99998.81
2023-05-10T02:38:26.504Z,99996.19
2023-05-10T02:40:57.880Z,99993.81
2023-05-10T02:43:26.840Z,99996.53
2023-05-10T02:45:54.921Z,99997.59
2023-05-10T02:48:23.093Z,100000.59
2023-05-10T02:50:53.557Z,100003.31
2023-05-10T02:53:29.770Z,99998.81
2023-05-10T02:56:08.142Z,99999.78
2023-05-10T02:58:36.663Z,99997.22
2023-05-10T03:01:05.322Z,99999.69
2023-05-10T03:03:33.423Z,100001.66
2023-05-10T03:06:01.586Z,100001.75
2023-05-10T03:08:33.002Z,100005.31
2023-05-10T03:11:57.944Z,99997.69
2023-05-10T03:14:45.066Z,99998.53
2023-05-10T03:17:57.917Z,99998.63
2023-05-10T03:20:44.673Z,100003.16
2023-05-10T03:23:26.029Z,100005.84
2023-05-10T03:25:54.610Z,100003.97
2023-05-10T03:28:26.049Z,100002.22
2023-05-10T03:30:55.756Z,100002.97
2023-05-10T03:33:24.061Z,100011.22
2023-05-10T03:35:52.199Z,100007.47
2023-05-10T03:38:20.327Z,100008.22
2023-05-10T03:40:48.641Z,100006.97
2023-05-10T03:43:16.592Z,100003.22
2023-05-10T03:45:44.619Z,100007.06
2023-05-10T03:48:14.787Z,100003.22
2023-05-10T03:50:44.021Z,99999.25
2023-05-10T03:53:13.464Z,99994.44
2023-05-10T03:55:41.397Z,99994.03
2023-05-10T03:58:12.968Z,99998.91
2023-05-10T04:00:46.269Z,99996.53
2023-05-10T04:03:15.596Z,99994.16
2023-05-10T04:05:43.712Z,99983.75
2023-05-10T04:08:11.845Z,99991.06
2023-05-10T04:10:40.837Z,99984.75
2023-05-10T04:13:09.249Z,99989.97
2023-05-10T04:15:37.665Z,99986.50
2023-05-10T04:18:07.986Z,99982.50
2023-05-10T04:20:37.611Z,99986.84
2023-05-10T04:23:05.602Z,99984.63
2023-05-10T04:25:36.627Z,99988.38
2023-05-10T04:28:05.552Z,99981.06
2023-05-10T04:30:34.884Z,99970.72
2023-05-10T04:33:05.754Z,99966.78
2023-05-10T04:35:33.906Z,99967.41
2023-05-10T04:38:01.861Z,99962.16
2023-05-10T04:40:29.839Z,99967.09
2023-05-10T04:42:57.906Z,99962.88
2023-05-10T04:45:25.870Z,99956.69
2023-05-10T04:47:53.874Z,99959.59
2023-05-10T04:50:22.042Z,99944.00
2023-05-10T04:52:50.170Z,99941.59
2023-05-10T04:55:18.300Z,99941.59
2023-05-10T04:57:46.623Z,99943.63
2023-05-10T05:00:15.580Z,99941.72
2023-05-10T05:02:47.442Z,99938.47
2023-05-10T05:05:15.681Z,99932.75
2023-05-10T05:07:43.843Z,99931.31
2023-05-10T05:10:11.878Z,99925.75
2023-05-10T05:12:40.174Z,99930.53
2023-05-10T05:15:12.572Z,99933.59
2023-05-10T05:18:30.952Z,99932.09
2023-05-10T05:20:59.303Z,99933.03
2023-05-10T05:23:27.533Z,99934.44
2023-05-10T05:25:55.893Z,99930.75
2023-05-10T05:28:24.471Z,99934.09
2023-05-10T05:30:53.773Z,99943.41
2023-05-10T05:33:21.972Z,99939.38
2023-05-10T05:35:52.178Z,99940.84
2023-05-10T05:38:20.475Z,99942.78
2023-05-10T05:40:48.746Z,99934.41
2023-05-10T05:43:17.493Z,99932.09
2023-05-10T05:45:45.789Z,99935.47
2023-05-10T05:48:13.990Z,99933.28
2023-05-10T05:50:42.486Z,99943.41
2023-05-10T05:53:10.878Z,99950.69
2023-05-10T05:55:39.066Z,99952.56
2023-05-10T05:58:07.472Z,99952.34
2023-05-10T06:00:36.576Z,99948.94
2023-05-10T06:03:05.073Z,99951.78
2023-05-10T06:05:33.511Z,99957.56
2023-05-10T06:08:02.307Z,99942.06
2023-05-10T06:10:30.209Z,99938.19
2023-05-10T06:12:58.612Z,99932.66
2023-05-10T06:15:27.142Z,99928.88
2023-05-10T06:17:55.504Z,99931.84
2023-05-10T06:20:25.722Z,99929.31
2023-05-10T06:22:53.786Z,99935.16
2023-05-10T06:25:21.797Z,99933.38
2023-05-10T06:27:53.900Z,99940.81
2023-05-10T06:30:24.287Z,99931.25
2023-05-10T06:32:53.054Z,99931.97
2023-05-10T06:35:21.205Z,99934.63
2023-05-10T06:37:49.433Z,99931.09
2023-05-10T06:40:17.966Z,99946.34
2023-05-10T06:42:47.603Z,99936.28
2023-05-10T06:45:17.096Z,99933.72
2023-05-10T06:47:45.882Z,99943.00
2023-05-10T06:50:14.221Z,99952.53
2023-05-10T06:52:42.418Z,99956.81
2023-05-10T06:55:11.172Z,99942.75
2023-05-10T06:57:39.137Z,99950.50
2023-05-10T07:00:08.096Z,99951.47
2023-05-10T07:02:36.706Z,99938.84
2023-05-10T07:05:05.010Z,99941.16
2023-05-10T07:07:33.722Z,99946.16
2023-05-10T07:10:02.058Z,99951.28
2023-05-10T07:12:30.520Z,99937.44
2023-05-10T07:14:58.438Z,99953.22
2023-05-10T07:17:27.111Z,99950.94
2023-05-10T07:19:55.150Z,99949.41
2023-05-10T07:22:23.157Z,99953.28
2023-05-10T07:24:51.379Z,99951.22
2023-05-10T07:27:19.363Z,99918.75
2023-05-10T07:29:47.734Z,99945.91
2023-05-10T07:32:16.017Z,99936.81
2023-05-10T07:34:44.047Z,99933.63
2023-05-10T07:37:12.534Z,99933.31
2023-05-10T07:39:40.879Z,99937.53
2023-05-10T07:42:09.362Z,99934.66
2023-05-10T07:44:37.450Z,99939.16
2023-05-10T07:47:05.838Z,99931.31
2023-05-10T07:49:33.769Z,99934.47
2023-05-10T07:52:01.850Z,99917.72
2023-05-10T07:54:30.175Z,99913.03
2023-05-10T07:56:58.121Z,99926.09
2023-05-10T07:59:26.216Z,99915.38
2023-05-10T08:01:54.993Z,99923.72
2023-05-10T08:04:23.479Z,99917.06
2023-05-10T08:06:51.589Z,99924.72
2023-05-10T08:09:25.166Z,99916.69
2023-05-10T08:11:53.554Z,99930.66
2023-05-10T08:14:21.930Z,99923.66
2023-05-10T08:16:50.086Z,99899.47
2023-05-10T08:19:20.629Z,99918.16
2023-05-10T08:21:49.721Z,99913.69
2023-05-10T08:24:17.716Z,99918.06
2023-05-10T08:26:45.771Z,99911.84
2023-05-10T08:29:14.472Z,99917.41
2023-05-10T08:31:43.124Z,99919.34
2023-05-10T08:34:11.347Z,99926.66
2023-05-10T08:36:39.716Z,99905.94
2023-05-10T08:39:16.239Z,99919.91
2023-05-10T08:41:55.275Z,99906.78
2023-05-10T08:44:23.531Z,99906.03
2023-05-10T08:46:54.839Z,99910.03
2023-05-10T08:49:23.972Z,99899.28
2023-05-10T08:51:57.073Z,99892.97
2023-05-10T08:54:26.184Z,99908.44
2023-05-10T08:56:54.626Z,99904.13
2023-05-10T08:59:23.448Z,99914.84
2023-05-10T09:01:54.708Z,99910.06
2023-05-10T09:04:22.891Z,99903.94
2023-05-10T09:06:50.878Z,99885.22
2023-05-10T09:09:20.792Z,99912.25
2023-05-10T09:11:49.291Z,99921.50
2023-05-10T09:14:18.401Z,99911.38
2023-05-10T09:16:46.750Z,99898.94
2023-05-10T09:19:14.771Z,99901.50
2023-05-10T09:21:43.331Z,99911.59
2023-05-10T09:24:11.342Z,99924.78
2023-05-10T09:26:51.831Z,99903.50
2023-05-10T09:29:20.906Z,99903.44
2023-05-10T09:31:53.534Z,99904.00
2023-05-10T09:34:32.572Z,99906.31
2023-05-10T09:37:05.415Z,99906.97
2023-05-10T09:39:36.111Z,99910.13
2023-05-10T09:42:11.619Z,99904.22
2023-05-10T09:44:40.672Z,99907.81
2023-05-10T09:47:09.060Z,99909.13
2023-05-10T09:49:37.183Z,99912.09
2023-05-10T09:52:08.802Z,99894.59
2023-05-10T09:54:37.443Z,99899.97
2023-05-10T09:57:05.296Z,99885.41
2023-05-10T09:59:36.372Z,99873.34
2023-05-10T10:02:04.580Z,99881.22
2023-05-10T10:04:32.821Z,99898.72
2023-05-10T10:07:04.292Z,99896.53
2023-05-10T10:09:33.685Z,99893.09
2023-05-10T10:12:03.189Z,99874.66
2023-05-10T10:14:31.922Z,99887.50
2023-05-10T10:19:36.734Z,99878.94
2023-05-10T10:22:06.571Z,99866.59
2023-05-10T10:24:35.008Z,99866.31
2023-05-10T10:27:35.567Z,99872.66
2023-05-10T10:30:38.720Z,99867.34
2023-05-10T10:33:50.321Z,99860.06
2023-05-10T10:36:18.336Z,99854.59
2023-05-10T10:38:49.091Z,99852.94
2023-05-10T10:41:44.531Z,99843.72
2023-05-10T10:44:47.710Z,99831.78
2023-05-10T10:47:20.230Z,99837.00
2023-05-10T10:50:05.932Z,99828.69
2023-05-10T10:52:41.114Z,99824.75
2023-05-10T10:55:15.592Z,99829.31
2023-05-10T10:58:06.818Z,99824.78
2023-05-10T11:00:38.554Z,99826.78
2023-05-10T11:03:20.243Z,99826.75
2023-05-10T11:05:49.928Z,99810.28
2023-05-10T11:08:32.277Z,99822.72
2023-05-10T11:11:00.507Z,99808.38
2023-05-10T11:13:36.349Z,99804.59
2023-05-10T11:16:28.219Z,99801.09
2023-05-10T11:19:08.349Z,99808.78
2023-05-10T11:22:14.606Z,99797.50
2023-05-10T11:24:59.848Z,99800.00
2023-05-10T11:27:28.792Z,99787.47
2023-05-10T11:29:56.825Z,99796.91
2023-05-10T11:32:25.268Z,99795.28
2023-05-10T11:34:54.642Z,99800.53
2023-05-10T11:37:25.126Z,99790.88
2023-05-10T11:39:56.429Z,99773.25
2023-05-10T11:42:24.988Z,99794.19
2023-05-10T11:44:54.241Z,99798.53
2023-05-10T11:47:23.459Z,99791.44
2023-05-10T11:49:53.222Z,99788.06
2023-05-10T11:52:21.455Z,99785.81
2023-05-10T11:54:54.261Z,99775.94
2023-05-10T11:57:28.195Z,99786.69
2023-05-10T11:59:58.424Z,99779.38
2023-05-10T12:02:27.304Z,99788.34
2023-05-10T12:04:57.565Z,99774.88
2023-05-10T12:07:27.758Z,99785.00
2023-05-10T12:10:17.656Z,99773.09
2023-05-10T12:12:49.549Z,99783.13
2023-05-10T12:15:26.074Z,99770.31
2023-05-10T12:17:54.529Z,99778.03
2023-05-10T12:20:25.453Z,99774.78
2023-05-10T12:22:58.284Z,99760.06
2023-05-10T12:25:33.164Z,99769.06
2023-05-10T12:28:06.467Z,99751.44
2023-05-10T12:30:37.129Z,99767.03
2023-05-10T12:33:19.041Z,99771.25
2023-05-10T12:35:54.368Z,99777.81
2023-05-10T12:38:35.557Z,99744.09
2023-05-10T12:41:10.047Z,99744.94
2023-05-10T12:43:40.282Z,99745.09
2023-05-10T12:46:14.055Z,99739.56
2023-05-10T12:48:45.161Z,99744.47
2023-05-10T12:51:16.694Z,99748.41
2023-05-10T12:53:49.361Z,99737.78
2023-05-10T12:56:18.090Z,99737.47
2023-05-10T12:58:49.422Z,99734.97
2023-05-10T13:01:17.485Z,99737.25
2023-05-10T13:03:46.307Z,99730.00
2023-05-10T13:06:15.511Z,99723.50
2023-05-10T13:08:43.655Z,99727.97
2023-05-10T13:11:12.070Z,99727.16
2023-05-10T13:13:40.318Z,99719.72
2023-05-10T13:16:08.617Z,99733.31
2023-05-10T13:18:37.074Z,99726.09
2023-05-10T13:21:06.738Z,99719.09
2023-05-10T13:23:35.874Z,99731.88
2023-05-10T13:26:04.208Z,99710.91
2023-05-10T13:28:32.696Z,99713.88
2023-05-10T13:31:01.389Z,99714.22
2023-05-10T13:33:29.547Z,99728.09
2023-05-10T13:35:57.722Z,99701.31
2023-05-10T13:38:25.905Z,99714.66
2023-05-10T13:40:54.184Z,99718.53
2023-05-10T13:43:22.312Z,99700.66
2023-05-10T13:45:50.311Z,99702.03
2023-05-10T13:48:18.513Z,99702.00
2023-05-10T13:50:47.417Z,99692.97
2023-05-10T13:53:15.720Z,99697.22
2023-05-10T13:55:44.080Z,99685.50
2023-05-10T13:58:12.397Z,99678.81
2023-05-10T14:00:40.410Z,99693.41
2023-05-10T14:03:10.576Z,99683.84
2023-05-10T14:05:38.812Z,99688.41
2023-05-10T14:08:06.974Z,99684.22
2023-05-10T14:10:35.064Z,99675.38
2023-05-10T14:13:04.577Z,99675.38
2023-05-10T14:15:32.641Z,99662.81
2023-05-10T14:18:01.670Z,99659.66
2023-05-10T14:20:30.288Z,99698.41
2023-05-10T14:22:58.520Z,99678.13
2023-05-10T14:25:27.052Z,99677.03
2023-05-10T14:27:55.830Z,99665.00
2023-05-10T14:30:23.984Z,99660.44
2023-05-10T14:32:52.138Z,99665.09
2023-05-10T14:35:21.419Z,99671.44
2023-05-10T14:37:49.896Z,99670.00
2023-05-10T14:40:18.255Z,99670.00
2023-05-10T14:42:46.384Z,99675.69
2023-05-10T14:45:14.917Z,99659.69
2023-05-10T14:47:43.175Z,99663.69
2023-05-10T14:50:16.638Z,99660.56
2023-05-10T14:52:53.496Z,99668.25
2023-05-10T14:55:21.751Z,99660.03
2023-05-10T14:57:51.646Z,99659.44
2023-05-10T15:00:20.509Z,99656.34
2023-05-10T15:02:49.758Z,99657.28
2023-05-10T15:05:19.006Z,99657.03
2023-05-10T15:07:47.698Z,99659.53
2023-05-10T15:10:16.873Z,99667.31
2023-05-10T15:12:44.953Z,99667.31
2023-05-10T15:15:13.110Z,99663.84
2023-05-10T15:17:43.208Z,99664.97
2023-05-10T15:20:14.398Z,99664.78
2023-05-10T15:22:42.740Z,99663.50
2023-05-10T15:25:11.272Z,99663.56
2023-05-10T15:27:39.772Z,99663.28
2023-05-10T15:30:08.898Z,99664.22
2023-05-10T15:32:37.481Z,99658.72
2023-05-10T15:35:06.499Z,99653.22
2023-05-10T15:37:34.948Z,99652.56
2023-05-10T15:40:06.475Z,99654.81
2023-05-10T15:42:34.636Z,99655.38
2023-05-10T15:45:02.880Z,99653.88
2023-05-10T15:47:32.232Z,99666.25
2023-05-10T15:50:00.449Z,99661.16
2023-05-10T15:52:28.494Z,99646.34
2023-05-10T15:54:56.707Z,99647.81
2023-05-10T15:57:24.846Z,99651.78
2023-05-10T15:59:53.699Z,99666.91
2023-05-10T16:02:22.903Z,99647.13
2023-05-10T16:04:51.841Z,99659.22
2023-05-10T16:07:20.035Z,99654.53
2023-05-10T16:09:49.657Z,99653.25
2023-05-10T16:12:17.756Z,99655.31
2023-05-10T16:14:46.565Z,99648.31
2023-05-10T16:17:15.682Z,99660.16
2023-05-10T16:19:43.958Z,99647.84
2023-05-10T16:22:12.131Z,99653.50
2023-05-10T16:24:40.805Z,99651.06
2023-05-10T16:27:08.832Z,99667.91
2023-05-10T16:29:36.956Z,99659.31
2023-05-10T16:32:05.292Z,99655.13
2023-05-10T16:34:33.309Z,99663.28
2023-05-10T16:37:01.620Z,99665.00
2023-05-10T16:39:29.818Z,99663.44
2023-05-10T16:41:58.124Z,99662.59
2023-05-10T16:44:26.311Z,99664.94
2023-05-10T16:46:55.355Z,99678.13
2023-05-10T16:49:25.315Z,99677.63
2023-05-10T16:51:54.660Z,99680.78
2023-05-10T16:54:23.056Z,99682.84
2023-05-10T16:56:51.068Z,99685.34
2023-05-10T16:59:20.721Z,99685.44
2023-05-10T17:01:50.413Z,99690.22
2023-05-10T17:04:18.519Z,99684.41
2023-05-10T17:06:47.907Z,99682.81
2023-05-10T17:09:17.140Z,99692.50
2023-05-10T17:11:46.880Z,99700.16
2023-05-10T17:14:15.204Z,99708.09
2023-05-10T17:16:43.928Z,99706.34
2023-05-10T17:19:12.098Z,99711.16
2023-05-10T17:21:40.608Z,99714.03
2023-05-10T17:24:10.618Z,99718.75
2023-05-10T17:26:38.959Z,99722.50
2023-05-10T17:29:09.783Z,99723.63
2023-05-10T17:31:38.144Z,99729.97
2023-05-10T17:34:06.713Z,99726.19
2023-05-10T17:36:38.910Z,99731.41
2023-05-10T17:39:08.028Z,99742.19
2023-05-10T17:41:37.286Z,99737.22
2023-05-10T17:44:05.438Z,99753.72
2023-05-10T17:46:33.737Z,99748.38
2023-05-10T17:49:01.870Z,99755.50
2023-05-10T17:51:30.099Z,99766.53
2023-05-10T17:53:58.649Z,99758.25
2023-05-10T17:56:27.259Z,99776.25
2023-05-10T17:58:55.631Z,99768.13
2023-05-10T18:01:23.965Z,99774.09
2023-05-10T18:03:53.029Z,99773.53
2023-05-10T18:06:21.903Z,99779.63
2023-05-10T18:08:52.618Z,99786.19
2023-05-10T18:11:21.943Z,99785.31
2023-05-10T18:13:50.899Z,99789.19
2023-05-10T18:16:22.261Z,99795.44
2023-05-10T18:18:50.976Z,99794.53
2023-05-10T18:21:19.361Z,99802.63
2023-05-10T18:23:48.127Z,99813.38
2023-05-10T18:26:18.463Z,99813.28
2023-05-10T18:28:48.404Z,99818.84
2023-05-10T18:31:18.377Z,99827.91
2023-05-10T18:33:47.015Z,99827.09
2023-05-10T18:36:17.234Z,99833.03
2023-05-10T18:38:46.460Z,99830.25
2023-05-10T18:41:15.065Z,99828.19
2023-05-10T18:43:43.335Z,99830.88
2023-05-10T18:46:11.995Z,99837.06
2023-05-10T18:48:40.828Z,99836.19
2023-05-10T18:51:09.019Z,99837.91
2023-05-10T18:53:37.933Z,99840.47
2023-05-10T18:56:07.360Z,99844.84
2023-05-10T18:58:36.288Z,99847.25
2023-05-10T19:01:04.933Z,99843.47
2023-05-10T19:03:33.502Z,99845.97
2023-05-10T19:06:01.489Z,99855.66
2023-05-10T19:08:30.494Z,99840.53
2023-05-10T19:10:58.944Z,99857.09
2023-05-10T19:13:28.471Z,99856.53
2023-05-10T19:16:14.102Z,99855.69
2023-05-10T19:18:45.160Z,99860.47
2023-05-10T19:21:17.333Z,99856.69
2023-05-10T19:23:47.528Z,99868.00
2023-05-10T19:26:15.967Z,99866.34
2023-05-10T19:28:44.134Z,99862.13
2023-05-10T19:31:12.335Z,99863.66
2023-05-10T19:33:40.858Z,99853.56
2023-05-10T19:36:09.235Z,99857.03
2023-05-10T19:38:38.153Z,99861.50
2023-05-10T19:41:06.740Z,99869.19
2023-05-10T19:43:37.565Z,99871.50
2023-05-10T19:46:07.076Z,99866.63
2023-05-10T19:48:35.552Z,99866.75
2023-05-10T19:51:07.826Z,99863.66
2023-05-10T19:53:36.957Z,99860.16
2023-05-10T19:56:07.281Z,99859.41
2023-05-10T19:58:35.600Z,99867.91
2023-05-10T20:01:06.053Z,99870.84
2023-05-10T20:03:35.665Z,99869.41
2023-05-10T20:06:04.525Z,99872.06
2023-05-10T20:08:33.012Z,99878.44
2023-05-10T20:11:04.486Z,99886.47
2023-05-10T20:13:34.487Z,99886.59
2023-05-10T20:16:03.957Z,99880.56
2023-05-10T20:18:32.056Z,99879.88
2023-05-10T20:21:01.571Z,99874.56
2023-05-10T20:23:29.805Z,99877.88
2023-05-10T20:25:58.478Z,99881.22
2023-05-10T20:28:27.273Z,99875.22
2023-05-10T20:30:56.308Z,99881.16
2023-05-10T20:33:25.592Z,99868.41
2023-05-10T20:35:53.711Z,99874.44
2023-05-10T20:38:22.001Z,99880.72
2023-05-10T20:40:49.926Z,99875.72
2023-05-10T20:43:19.079Z,99873.19
2023-05-10T20:45:47.949Z,99876.56
2023-05-10T20:48:17.124Z,99878.88
2023-05-10T20:50:45.437Z,99881.72
2023-05-10T20:53:18.616Z,99880.53
2023-05-10T20:55:47.010Z,99882.47
2023-05-10T20:58:15.401Z,99882.00
2023-05-10T21:00:43.751Z,99884.06
2023-05-10T21:03:12.388Z,99882.13
2023-05-10T21:05:40.795Z,99891.94
2023-05-10T21:08:08.922Z,99888.31
2023-05-10T21:10:37.341Z,99881.34
2023-05-10T21:13:05.544Z,99892.53
2023-05-10T21:15:33.510Z,99893.41
2023-05-10T21:18:02.145Z,99896.66
2023-05-10T21:20:31.272Z,99897.50
2023-05-10T21:22:59.298Z,99898.63
2023-05-10T21:25:27.636Z,99897.75
2023-05-10T21:27:56.148Z,99898.16
2023-05-10T21:30:24.450Z,99904.66
2023-05-10T21:32:54.035Z,99903.94
2023-05-10T21:35:22.056Z,99905.41
2023-05-10T21:37:50.215Z,99900.13
2023-05-10T21:40:20.479Z,99906.41
2023-05-10T21:42:52.634Z,99900.97
2023-05-10T21:45:21.016Z,99905.19
2023-05-10T21:47:49.436Z,99909.50
2023-05-10T21:50:18.373Z,99916.00
2023-05-10T21:52:46.803Z,99910.34
2023-05-10T21:55:15.746Z,99917.94
2023-05-10T21:57:44.948Z,99914.19
2023-05-10T22:00:14.065Z,99911.16
2023-05-10T22:02:42.729Z,99910.56
2023-05-10T22:05:11.553Z,99920.34
2023-05-10T22:07:40.435Z,99910.06
2023-05-10T22:10:09.657Z,99913.69
2023-05-10T22:12:38.129Z,99910.91
2023-05-10T22:15:10.329Z,99912.22
2023-05-10T22:17:40.548Z,99903.16
2023-05-10T22:20:10.062Z,99907.00
2023-05-10T22:22:38.114Z,99908.69
2023-05-10T22:25:07.787Z,99907.00
2023-05-10T22:27:36.302Z,99907.00
2023-05-10T22:30:06.129Z,99909.16
2023-05-10T22:32:34.314Z,99911.75
2023-05-10T22:35:04.448Z,99921.34
2023-05-10T22:37:32.336Z,99921.69
2023-05-10T22:40:00.344Z,99923.06
2023-05-10T22:42:28.557Z,99931.56
2023-05-10T22:44:56.634Z,99932.00
2023-05-10T22:47:24.560Z,99930.09
2023-05-10T22:49:52.557Z,99924.50
2023-05-10T22:52:20.549Z,99929.47
2023-05-10T22:54:48.902Z,99923.66
2023-05-10T22:57:17.490Z,99926.00
2023-05-10T22:59:45.493Z,99926.00
2023-05-10T23:02:14.388Z,99933.28
2023-05-10T23:04:42.921Z,99927.78
2023-05-10T23:07:11.572Z,99929.09
2023-05-10T23:09:39.569Z,99926.84
2023-05-10T23:12:08.019Z,99923.38
2023-05-10T23:14:35.953Z,99925.69
2023-05-10T23:17:03.958Z,99924.41
2023-05-10T23:19:31.918Z,99924.53
2023-05-10T23:21:59.721Z,99922.09
2023-05-10T23:24:27.700Z,99930.66
2023-05-10T23:26:55.815Z,99919.78
2023-05-10T23:29:26.283Z,99921.47
2023-05-10T23:31:54.368Z,99919.59
2023-05-10T23:34:22.542Z,99918.50
2023-05-10T23:36:50.467Z,99928.25
2023-05-10T23:39:18.297Z,99915.75
2023-05-10T23:41:46.906Z,99921.50
2023-05-10T23:44:14.908Z,99919.16
2023-05-10T23:46:42.912Z,99914.19
2023-05-10T23:49:11.258Z,99917.47
2023-05-10T23:51:39.224Z,99915.97
2023-05-10T23:54:07.120Z,99914.50
2023-05-10T23:56:35.324Z,99925.88
2023-05-10T23:59:03.206Z,99913.44
